sensor_id;sensor_type;location;lat;lon;timestamp;P1;durP1;ratioP1;P2;durP2;ratioP2
13419;SDS011;6781;58.440;15.470;2023-07-31T00:27:09;3.25;;;1.88;;
13419;SDS011;6781;58.440;15.470;2023-07-31T00:29:36;3.78;;;2.00;;
13419;SDS011;6781;58.440;15.470;2023-07-31T00:32:02;5.30;;;2.00;;
13419;SDS011;6781;58.440;15.470;2023-07-31T00:34:29;2.08;;;1.70;;
13419;SDS011;6781;58.440;15.470;2023-07-31T00:36:57;5.47;;;1.95;;
13419;SDS011;6781;58.440;15.470;2023-07-31T00:39:24;2.40;;;1.88;;
13419;SDS011;6781;58.440;15.470;2023-07-31T00:41:51;3.92;;;2.13;;
13419;SDS011;6781;58.440;15.470;2023-07-31T00:44:19;1.92;;;1.73;;
13419;SDS011;6781;58.440;15.470;2023-07-31T00:46:47;2.10;;;1.85;;
13419;SDS011;6781;58.440;15.470;2023-07-31T00:49:14;2.55;;;1.77;;
13419;SDS011;6781;58.440;15.470;2023-07-31T00:51:41;3.28;;;2.28;;
13419;SDS011;6781;58.440;15.470;2023-07-31T00:54:08;2.42;;;1.80;;
13419;SDS011;6781;58.440;15.470;2023-07-31T00:56:36;5.35;;;2.38;;
13419;SDS011;6781;58.440;15.470;2023-07-31T00:59:03;4.25;;;1.95;;
13419;SDS011;6781;58.440;15.470;2023-07-31T01:01:32;2.45;;;1.63;;
13419;SDS011;6781;58.440;15.470;2023-07-31T01:03:59;4.00;;;1.90;;
13419;SDS011;6781;58.440;15.470;2023-07-31T01:06:27;2.30;;;2.00;;
13419;SDS011;6781;58.440;15.470;2023-07-31T01:09:03;2.95;;;1.75;;
13419;SDS011;6781;58.440;15.470;2023-07-31T01:11:39;1.70;;;1.60;;
13419;SDS011;6781;58.440;15.470;2023-07-31T01:14:13;3.55;;;1.80;;
13419;SDS011;6781;58.440;15.470;2023-07-31T01:16:42;4.40;;;1.65;;
13419;SDS011;6781;58.440;15.470;2023-07-31T01:19:09;1.80;;;1.70;;
13419;SDS011;6781;58.440;15.470;2023-07-31T01:21:41;3.97;;;1.60;;
13419;SDS011;6781;58.440;15.470;2023-07-31T01:24:25;3.00;;;1.70;;
13419;SDS011;6781;58.440;15.470;2023-07-31T01:27:00;2.65;;;2.00;;
13419;SDS011;6781;58.440;15.470;2023-07-31T01:29:34;2.95;;;1.80;;
13419;SDS011;6781;58.440;15.470;2023-07-31T01:32:09;3.80;;;2.00;;
13419;SDS011;6781;58.440;15.470;2023-07-31T01:34:38;3.00;;;2.10;;
13419;SDS011;6781;58.440;15.470;2023-07-31T01:37:07;2.05;;;1.80;;
13419;SDS011;6781;58.440;15.470;2023-07-31T01:39:34;2.85;;;1.50;;
13419;SDS011;6781;58.440;15.470;2023-07-31T01:42:03;3.75;;;1.50;;
13419;SDS011;6781;58.440;15.470;2023-07-31T01:44:30;2.70;;;2.00;;
13419;SDS011;6781;58.440;15.470;2023-07-31T01:46:58;3.20;;;2.00;;
13419;SDS011;6781;58.440;15.470;2023-07-31T01:49:25;5.25;;;2.13;;
13419;SDS011;6781;58.440;15.470;2023-07-31T01:51:52;4.93;;;2.22;;
13419;SDS011;6781;58.440;15.470;2023-07-31T01:54:19;2.40;;;2.20;;
13419;SDS011;6781;58.440;15.470;2023-07-31T01:56:46;3.55;;;2.13;;
13419;SDS011;6781;58.440;15.470;2023-07-31T01:59:14;4.20;;;2.00;;
13419;SDS011;6781;58.440;15.470;2023-07-31T02:01:41;3.90;;;2.10;;
13419;SDS011;6781;58.440;15.470;2023-07-31T02:04:08;2.13;;;1.92;;
13419;SDS011;6781;58.440;15.470;2023-07-31T02:09:11;2.55;;;2.08;;
13419;SDS011;6781;58.440;15.470;2023-07-31T02:11:39;2.38;;;1.70;;
13419;SDS011;6781;58.440;15.470;2023-07-31T02:14:06;4.80;;;1.90;;
13419;SDS011;6781;58.440;15.470;2023-07-31T02:16:34;2.88;;;2.28;;
13419;SDS011;6781;58.440;15.470;2023-07-31T02:19:01;2.55;;;1.80;;
13419;SDS011;6781;58.440;15.470;2023-07-31T02:21:28;3.15;;;1.70;;
13419;SDS011;6781;58.440;15.470;2023-07-31T02:23:55;1.73;;;1.63;;
13419;SDS011;6781;58.440;15.470;2023-07-31T02:26:22;2.45;;;1.67;;
13419;SDS011;6781;58.440;15.470;2023-07-31T02:28:49;2.78;;;2.10;;
13419;SDS011;6781;58.440;15.470;2023-07-31T02:31:16;2.00;;;1.80;;
13419;SDS011;6781;58.440;15.470;2023-07-31T02:33:45;2.08;;;1.80;;
13419;SDS011;6781;58.440;15.470;2023-07-31T02:36:12;2.67;;;1.75;;
13419;SDS011;6781;58.440;15.470;2023-07-31T02:38:39;5.07;;;1.75;;
13419;SDS011;6781;58.440;15.470;2023-07-31T02:41:06;1.77;;;1.67;;
13419;SDS011;6781;58.440;15.470;2023-07-31T02:43:34;4.78;;;2.20;;
13419;SDS011;6781;58.440;15.470;2023-07-31T02:46:01;1.77;;;1.67;;
13419;SDS011;6781;58.440;15.470;2023-07-31T02:48:28;2.67;;;1.98;;
13419;SDS011;6781;58.440;15.470;2023-07-31T02:50:56;2.17;;;1.88;;
13419;SDS011;6781;58.440;15.470;2023-07-31T02:53:23;4.03;;;2.10;;
13419;SDS011;6781;58.440;15.470;2023-07-31T02:55:50;1.83;;;1.73;;
13419;SDS011;6781;58.440;15.470;2023-07-31T02:58:17;2.58;;;2.17;;
13419;SDS011;6781;58.440;15.470;2023-07-31T03:00:44;5.25;;;2.03;;
13419;SDS011;6781;58.440;15.470;2023-07-31T03:03:12;4.40;;;2.00;;
13419;SDS011;6781;58.440;15.470;2023-07-31T03:05:38;2.00;;;1.90;;
13419;SDS011;6781;58.440;15.470;2023-07-31T03:08:07;2.55;;;1.90;;
13419;SDS011;6781;58.440;15.470;2023-07-31T03:10:34;3.83;;;2.00;;
13419;SDS011;6781;58.440;15.470;2023-07-31T03:13:01;4.70;;;2.22;;
13419;SDS011;6781;58.440;15.470;2023-07-31T03:15:28;2.28;;;2.08;;
13419;SDS011;6781;58.440;15.470;2023-07-31T03:17:55;3.10;;;2.25;;
13419;SDS011;6781;58.440;15.470;2023-07-31T03:20:22;2.63;;;1.75;;
13419;SDS011;6781;58.440;15.470;2023-07-31T03:22:49;2.53;;;2.08;;
13419;SDS011;6781;58.440;15.470;2023-07-31T03:25:18;3.03;;;1.90;;
13419;SDS011;6781;58.440;15.470;2023-07-31T03:27:45;1.98;;;1.80;;
13419;SDS011;6781;58.440;15.470;2023-07-31T03:30:12;2.97;;;2.00;;
13419;SDS011;6781;58.440;15.470;2023-07-31T03:32:40;4.18;;;1.83;;
13419;SDS011;6781;58.440;15.470;2023-07-31T03:35:07;4.63;;;2.10;;
13419;SDS011;6781;58.440;15.470;2023-07-31T03:37:34;2.10;;;1.90;;
13419;SDS011;6781;58.440;15.470;2023-07-31T03:40:01;4.57;;;1.95;;
13419;SDS011;6781;58.440;15.470;2023-07-31T03:45:36;5.75;;;3.35;;
13419;SDS011;6781;58.440;15.470;2023-07-31T03:48:04;3.25;;;2.30;;
13419;SDS011;6781;58.440;15.470;2023-07-31T03:50:54;2.85;;;2.20;;
13419;SDS011;6781;58.440;15.470;2023-07-31T03:53:21;2.25;;;2.05;;
13419;SDS011;6781;58.440;15.470;2023-07-31T03:55:54;4.45;;;2.30;;
13419;SDS011;6781;58.440;15.470;2023-07-31T03:58:23;4.18;;;2.42;;
13419;SDS011;6781;58.440;15.470;2023-07-31T04:00:49;3.08;;;1.95;;
13419;SDS011;6781;58.440;15.470;2023-07-31T04:03:16;2.33;;;1.95;;
13419;SDS011;6781;58.440;15.470;2023-07-31T04:05:44;2.53;;;2.20;;
13419;SDS011;6781;58.440;15.470;2023-07-31T04:08:11;2.75;;;2.17;;
13419;SDS011;6781;58.440;15.470;2023-07-31T04:10:38;2.30;;;2.10;;
13419;SDS011;6781;58.440;15.470;2023-07-31T04:13:05;2.40;;;2.05;;
13419;SDS011;6781;58.440;15.470;2023-07-31T04:15:33;2.25;;;2.05;;
13419;SDS011;6781;58.440;15.470;2023-07-31T04:18:00;4.88;;;2.25;;
13419;SDS011;6781;58.440;15.470;2023-07-31T04:20:27;2.55;;;1.95;;
13419;SDS011;6781;58.440;15.470;2023-07-31T04:22:54;2.20;;;1.90;;
13419;SDS011;6781;58.440;15.470;2023-07-31T04:25:21;2.33;;;2.08;;
13419;SDS011;6781;58.440;15.470;2023-07-31T04:27:48;2.50;;;2.22;;
13419;SDS011;6781;58.440;15.470;2023-07-31T04:30:15;2.90;;;2.28;;
13419;SDS011;6781;58.440;15.470;2023-07-31T04:32:44;2.42;;;2.20;;
13419;SDS011;6781;58.440;15.470;2023-07-31T04:35:11;2.58;;;2.35;;
13419;SDS011;6781;58.440;15.470;2023-07-31T04:37:37;2.35;;;2.17;;
13419;SDS011;6781;58.440;15.470;2023-07-31T04:40:05;3.25;;;2.50;;
13419;SDS011;6781;58.440;15.470;2023-07-31T04:42:33;4.30;;;2.40;;
13419;SDS011;6781;58.440;15.470;2023-07-31T04:45:00;3.75;;;2.03;;
13419;SDS011;6781;58.440;15.470;2023-07-31T04:47:27;3.50;;;2.30;;
13419;SDS011;6781;58.440;15.470;2023-07-31T04:49:56;3.85;;;2.10;;
13419;SDS011;6781;58.440;15.470;2023-07-31T04:52:22;7.07;;;2.60;;
13419;SDS011;6781;58.440;15.470;2023-07-31T04:54:49;3.40;;;2.28;;
13419;SDS011;6781;58.440;15.470;2023-07-31T04:57:16;2.47;;;2.28;;
13419;SDS011;6781;58.440;15.470;2023-07-31T04:59:43;5.55;;;2.17;;
13419;SDS011;6781;58.440;15.470;2023-07-31T05:02:11;3.58;;;2.85;;
13419;SDS011;6781;58.440;15.470;2023-07-31T05:04:38;5.55;;;2.67;;
13419;SDS011;6781;58.440;15.470;2023-07-31T05:07:07;2.40;;;2.17;;
13419;SDS011;6781;58.440;15.470;2023-07-31T05:09:34;5.10;;;2.20;;
13419;SDS011;6781;58.440;15.470;2023-07-31T05:12:01;2.65;;;2.50;;
13419;SDS011;6781;58.440;15.470;2023-07-31T05:14:30;3.15;;;2.53;;
13419;SDS011;6781;58.440;15.470;2023-07-31T05:16:57;2.53;;;2.20;;
13419;SDS011;6781;58.440;15.470;2023-07-31T05:19:25;2.30;;;2.20;;
13419;SDS011;6781;58.440;15.470;2023-07-31T05:21:52;2.55;;;2.33;;
13419;SDS011;6781;58.440;15.470;2023-07-31T05:24:21;3.22;;;2.28;;
13419;SDS011;6781;58.440;15.470;2023-07-31T05:26:48;2.53;;;2.10;;
13419;SDS011;6781;58.440;15.470;2023-07-31T05:29:15;4.10;;;2.33;;
13419;SDS011;6781;58.440;15.470;2023-07-31T05:31:42;5.78;;;2.80;;
13419;SDS011;6781;58.440;15.470;2023-07-31T05:34:09;4.75;;;2.42;;
13419;SDS011;6781;58.440;15.470;2023-07-31T05:36:36;2.97;;;2.30;;
13419;SDS011;6781;58.440;15.470;2023-07-31T05:39:03;4.00;;;2.00;;
13419;SDS011;6781;58.440;15.470;2023-07-31T05:41:35;5.85;;;2.20;;
13419;SDS011;6781;58.440;15.470;2023-07-31T05:44:02;2.40;;;2.20;;
13419;SDS011;6781;58.440;15.470;2023-07-31T05:46:29;2.45;;;2.00;;
13419;SDS011;6781;58.440;15.470;2023-07-31T05:48:57;3.58;;;2.10;;
13419;SDS011;6781;58.440;15.470;2023-07-31T05:51:26;2.17;;;1.95;;
13419;SDS011;6781;58.440;15.470;2023-07-31T05:53:53;3.08;;;2.03;;
13419;SDS011;6781;58.440;15.470;2023-07-31T05:56:20;4.00;;;2.10;;
13419;SDS011;6781;58.440;15.470;2023-07-31T05:58:49;3.17;;;2.17;;
13419;SDS011;6781;58.440;15.470;2023-07-31T06:01:16;3.67;;;2.38;;
13419;SDS011;6781;58.440;15.470;2023-07-31T06:03:43;2.08;;;1.80;;
13419;SDS011;6781;58.440;15.470;2023-07-31T06:06:11;2.20;;;1.95;;
13419;SDS011;6781;58.440;15.470;2023-07-31T06:08:39;3.33;;;2.10;;
13419;SDS011;6781;58.440;15.470;2023-07-31T06:11:06;6.30;;;2.22;;
13419;SDS011;6781;58.440;15.470;2023-07-31T06:13:34;1.90;;;1.80;;
13419;SDS011;6781;58.440;15.470;2023-07-31T06:16:03;3.58;;;2.47;;
13419;SDS011;6781;58.440;15.470;2023-07-31T06:18:31;2.42;;;1.95;;
13419;SDS011;6781;58.440;15.470;2023-07-31T06:20:58;5.75;;;2.53;;
13419;SDS011;6781;58.440;15.470;2023-07-31T06:23:26;2.80;;;2.40;;
13419;SDS011;6781;58.440;15.470;2023-07-31T06:25:53;2.08;;;1.98;;
13419;SDS011;6781;58.440;15.470;2023-07-31T06:28:20;2.08;;;1.85;;
13419;SDS011;6781;58.440;15.470;2023-07-31T06:30:47;9.52;;;2.10;;
13419;SDS011;6781;58.440;15.470;2023-07-31T06:33:15;3.03;;;1.77;;
13419;SDS011;6781;58.440;15.470;2023-07-31T06:35:42;4.55;;;1.92;;
13419;SDS011;6781;58.440;15.470;2023-07-31T06:38:10;4.40;;;2.40;;
13419;SDS011;6781;58.440;15.470;2023-07-31T06:40:37;3.53;;;2.13;;
13419;SDS011;6781;58.440;15.470;2023-07-31T06:43:05;2.25;;;2.05;;
13419;SDS011;6781;58.440;15.470;2023-07-31T06:45:33;2.05;;;1.67;;
13419;SDS011;6781;58.440;15.470;2023-07-31T06:48:01;3.78;;;2.03;;
13419;SDS011;6781;58.440;15.470;2023-07-31T06:50:30;2.28;;;2.05;;
13419;SDS011;6781;58.440;15.470;2023-07-31T06:52:58;2.63;;;1.70;;
13419;SDS011;6781;58.440;15.470;2023-07-31T06:55:25;2.80;;;1.70;;
13419;SDS011;6781;58.440;15.470;2023-07-31T06:57:53;4.28;;;1.80;;
13419;SDS011;6781;58.440;15.470;2023-07-31T07:00:21;3.35;;;1.73;;
13419;SDS011;6781;58.440;15.470;2023-07-31T07:02:49;2.42;;;2.00;;
13419;SDS011;6781;58.440;15.470;2023-07-31T07:05:16;2.95;;;1.80;;
13419;SDS011;6781;58.440;15.470;2023-07-31T07:07:45;3.22;;;1.92;;
13419;SDS011;6781;58.440;15.470;2023-07-31T07:10:12;3.90;;;1.88;;
13419;SDS011;6781;58.440;15.470;2023-07-31T07:12:39;3.22;;;1.70;;
13419;SDS011;6781;58.440;15.470;2023-07-31T07:15:06;3.15;;;1.85;;
13419;SDS011;6781;58.440;15.470;2023-07-31T07:17:34;3.53;;;1.83;;
13419;SDS011;6781;58.440;15.470;2023-07-31T07:20:02;3.95;;;2.30;;
13419;SDS011;6781;58.440;15.470;2023-07-31T07:22:29;3.92;;;1.67;;
13419;SDS011;6781;58.440;15.470;2023-07-31T07:24:58;3.22;;;1.77;;
13419;SDS011;6781;58.440;15.470;2023-07-31T07:27:25;3.35;;;1.92;;
13419;SDS011;6781;58.440;15.470;2023-07-31T07:29:52;3.03;;;1.85;;
13419;SDS011;6781;58.440;15.470;2023-07-31T07:32:19;2.80;;;1.55;;
13419;SDS011;6781;58.440;15.470;2023-07-31T07:34:47;1.83;;;1.65;;
13419;SDS011;6781;58.440;15.470;2023-07-31T07:37:14;5.63;;;2.10;;
13419;SDS011;6781;58.440;15.470;2023-07-31T07:39:41;2.03;;;1.65;;
13419;SDS011;6781;58.440;15.470;2023-07-31T07:42:10;2.75;;;1.88;;
13419;SDS011;6781;58.440;15.470;2023-07-31T07:44:37;2.53;;;1.80;;
13419;SDS011;6781;58.440;15.470;2023-07-31T07:47:04;3.30;;;1.67;;
13419;SDS011;6781;58.440;15.470;2023-07-31T07:49:32;4.78;;;2.08;;
13419;SDS011;6781;58.440;15.470;2023-07-31T07:51:59;2.63;;;1.63;;
13419;SDS011;6781;58.440;15.470;2023-07-31T07:54:27;2.63;;;1.63;;
13419;SDS011;6781;58.440;15.470;2023-07-31T07:56:53;3.15;;;1.70;;
13419;SDS011;6781;58.440;15.470;2023-07-31T07:59:22;3.10;;;1.60;;
13419;SDS011;6781;58.440;15.470;2023-07-31T08:01:49;2.17;;;1.45;;
13419;SDS011;6781;58.440;15.470;2023-07-31T08:04:16;5.68;;;1.80;;
13419;SDS011;6781;58.440;15.470;2023-07-31T08:06:43;1.70;;;1.13;;
13419;SDS011;6781;58.440;15.470;2023-07-31T08:09:10;2.35;;;1.70;;
13419;SDS011;6781;58.440;15.470;2023-07-31T08:11:37;4.82;;;1.50;;
13419;SDS011;6781;58.440;15.470;2023-07-31T08:14:04;3.28;;;1.50;;
13419;SDS011;6781;58.440;15.470;2023-07-31T08:16:33;1.98;;;1.33;;
13419;SDS011;6781;58.440;15.470;2023-07-31T08:19:00;4.43;;;1.30;;
13419;SDS011;6781;58.440;15.470;2023-07-31T08:21:27;2.90;;;1.63;;
13419;SDS011;6781;58.440;15.470;2023-07-31T08:23:54;3.28;;;1.33;;
13419;SDS011;6781;58.440;15.470;2023-07-31T08:26:21;2.20;;;1.42;;
13419;SDS011;6781;58.440;15.470;2023-07-31T08:28:48;2.13;;;1.30;;
13419;SDS011;6781;58.440;15.470;2023-07-31T08:31:15;2.15;;;1.40;;
13419;SDS011;6781;58.440;15.470;2023-07-31T08:33:44;2.58;;;1.48;;
13419;SDS011;6781;58.440;15.470;2023-07-31T08:36:12;2.20;;;1.40;;
13419;SDS011;6781;58.440;15.470;2023-07-31T08:38:38;2.03;;;1.40;;
13419;SDS011;6781;58.440;15.470;2023-07-31T08:41:05;1.98;;;1.10;;
13419;SDS011;6781;58.440;15.470;2023-07-31T08:43:32;4.47;;;1.48;;
13419;SDS011;6781;58.440;15.470;2023-07-31T08:46:00;3.30;;;1.58;;
13419;SDS011;6781;58.440;15.470;2023-07-31T08:48:28;1.35;;;1.30;;
13419;SDS011;6781;58.440;15.470;2023-07-31T08:50:59;2.80;;;1.25;;
13419;SDS011;6781;58.440;15.470;2023-07-31T08:53:26;3.08;;;1.60;;
13419;SDS011;6781;58.440;15.470;2023-07-31T08:55:53;2.05;;;1.30;;
13419;SDS011;6781;58.440;15.470;2023-07-31T08:58:21;2.47;;;1.30;;
13419;SDS011;6781;58.440;15.470;2023-07-31T09:00:50;2.65;;;1.55;;
13419;SDS011;6781;58.440;15.470;2023-07-31T09:03:18;3.45;;;1.45;;
13419;SDS011;6781;58.440;15.470;2023-07-31T09:05:48;2.08;;;1.30;;
13419;SDS011;6781;58.440;15.470;2023-07-31T09:08:19;1.65;;;1.05;;
13419;SDS011;6781;58.440;15.470;2023-07-31T09:10:48;1.88;;;1.42;;
13419;SDS011;6781;58.440;15.470;2023-07-31T09:13:16;1.45;;;1.20;;
13419;SDS011;6781;58.440;15.470;2023-07-31T09:15:44;3.95;;;1.88;;
13419;SDS011;6781;58.440;15.470;2023-07-31T09:18:12;1.55;;;1.25;;
13419;SDS011;6781;58.440;15.470;2023-07-31T09:20:43;1.63;;;1.15;;
13419;SDS011;6781;58.440;15.470;2023-07-31T09:23:11;3.28;;;1.13;;
13419;SDS011;6781;58.440;15.470;2023-07-31T09:25:43;2.35;;;1.00;;
13419;SDS011;6781;58.440;15.470;2023-07-31T09:28:10;2.67;;;1.20;;
13419;SDS011;6781;58.440;15.470;2023-07-31T09:30:45;1.42;;;1.33;;
13419;SDS011;6781;58.440;15.470;2023-07-31T09:33:14;1.73;;;1.08;;
13419;SDS011;6781;58.440;15.470;2023-07-31T09:35:41;1.05;;;1.00;;
13419;SDS011;6781;58.440;15.470;2023-07-31T09:38:11;1.27;;;1.17;;
13419;SDS011;6781;58.440;15.470;2023-07-31T09:40:39;1.83;;;1.08;;
13419;SDS011;6781;58.440;15.470;2023-07-31T09:43:09;1.77;;;1.33;;
13419;SDS011;6781;58.440;15.470;2023-07-31T09:45:37;1.77;;;1.15;;
13419;SDS011;6781;58.440;15.470;2023-07-31T09:48:06;2.53;;;1.25;;
13419;SDS011;6781;58.440;15.470;2023-07-31T09:50:36;2.53;;;1.10;;
13419;SDS011;6781;58.440;15.470;2023-07-31T09:53:04;2.13;;;1.10;;
13419;SDS011;6781;58.440;15.470;2023-07-31T09:55:32;1.98;;;1.13;;
13419;SDS011;6781;58.440;15.470;2023-07-31T09:58:00;1.30;;;0.93;;
13419;SDS011;6781;58.440;15.470;2023-07-31T10:00:33;1.83;;;1.17;;
13419;SDS011;6781;58.440;15.470;2023-07-31T10:03:02;1.85;;;1.15;;
13419;SDS011;6781;58.440;15.470;2023-07-31T10:05:33;2.92;;;1.42;;
13419;SDS011;6781;58.440;15.470;2023-07-31T10:08:01;3.42;;;1.02;;
13419;SDS011;6781;58.440;15.470;2023-07-31T10:10:29;3.55;;;1.33;;
13419;SDS011;6781;58.440;15.470;2023-07-31T10:12:57;2.72;;;1.17;;
13419;SDS011;6781;58.440;15.470;2023-07-31T10:15:26;3.03;;;1.38;;
13419;SDS011;6781;58.440;15.470;2023-07-31T10:17:56;7.78;;;2.15;;
13419;SDS011;6781;58.440;15.470;2023-07-31T10:20:24;12.00;;;2.42;;
13419;SDS011;6781;58.440;15.470;2023-07-31T10:22:53;5.82;;;2.60;;
13419;SDS011;6781;58.440;15.470;2023-07-31T10:25:21;6.65;;;1.98;;
13419;SDS011;6781;58.440;15.470;2023-07-31T10:27:48;4.85;;;1.90;;
13419;SDS011;6781;58.440;15.470;2023-07-31T10:30:17;5.90;;;1.90;;
13419;SDS011;6781;58.440;15.470;2023-07-31T10:32:46;5.18;;;2.03;;
13419;SDS011;6781;58.440;15.470;2023-07-31T10:35:16;3.15;;;1.67;;
13419;SDS011;6781;58.440;15.470;2023-07-31T10:37:44;5.47;;;1.95;;
13419;SDS011;6781;58.440;15.470;2023-07-31T10:40:12;3.10;;;1.45;;
13419;SDS011;6781;58.440;15.470;2023-07-31T10:42:45;5.00;;;1.40;;
13419;SDS011;6781;58.440;15.470;2023-07-31T10:45:23;4.00;;;1.58;;
13419;SDS011;6781;58.440;15.470;2023-07-31T10:47:57;6.75;;;1.60;;
13419;SDS011;6781;58.440;15.470;2023-07-31T10:50:28;3.35;;;1.23;;
13419;SDS011;6781;58.440;15.470;2023-07-31T10:52:58;1.75;;;1.40;;
13419;SDS011;6781;58.440;15.470;2023-07-31T10:55:30;3.58;;;1.40;;
13419;SDS011;6781;58.440;15.470;2023-07-31T10:58:05;2.25;;;1.52;;
13419;SDS011;6781;58.440;15.470;2023-07-31T11:00:33;2.92;;;1.27;;
13419;SDS011;6781;58.440;15.470;2023-07-31T11:03:03;2.90;;;1.30;;
13419;SDS011;6781;58.440;15.470;2023-07-31T11:05:46;2.53;;;1.05;;
13419;SDS011;6781;58.440;15.470;2023-07-31T11:08:15;1.58;;;0.90;;
13419;SDS011;6781;58.440;15.470;2023-07-31T11:10:44;2.38;;;1.23;;
13419;SDS011;6781;58.440;15.470;2023-07-31T11:13:12;1.80;;;1.15;;
13419;SDS011;6781;58.440;15.470;2023-07-31T11:15:39;1.45;;;1.05;;
13419;SDS011;6781;58.440;15.470;2023-07-31T11:18:06;3.38;;;1.15;;
13419;SDS011;6781;58.440;15.470;2023-07-31T11:20:36;1.45;;;1.00;;
13419;SDS011;6781;58.440;15.470;2023-07-31T11:23:06;1.58;;;1.02;;
13419;SDS011;6781;58.440;15.470;2023-07-31T11:25:35;1.45;;;1.15;;
13419;SDS011;6781;58.440;15.470;2023-07-31T11:28:04;2.25;;;0.90;;
13419;SDS011;6781;58.440;15.470;2023-07-31T11:30:31;3.42;;;1.10;;
13419;SDS011;6781;58.440;15.470;2023-07-31T11:32:59;1.20;;;0.90;;
13419;SDS011;6781;58.440;15.470;2023-07-31T11:35:28;1.50;;;1.08;;
13419;SDS011;6781;58.440;15.470;2023-07-31T11:37:55;1.73;;;1.00;;
13419;SDS011;6781;58.440;15.470;2023-07-31T11:40:24;2.33;;;0.95;;
13419;SDS011;6781;58.440;15.470;2023-07-31T11:42:55;1.17;;;0.73;;
13419;SDS011;6781;58.440;15.470;2023-07-31T11:45:24;1.50;;;1.13;;
13419;SDS011;6781;58.440;15.470;2023-07-31T11:47:54;1.20;;;1.00;;
13419;SDS011;6781;58.440;15.470;2023-07-31T11:50:22;0.98;;;0.80;;
13419;SDS011;6781;58.440;15.470;2023-07-31T11:52:52;1.40;;;0.90;;
13419;SDS011;6781;58.440;15.470;2023-07-31T11:55:25;1.90;;;0.77;;
13419;SDS011;6781;58.440;15.470;2023-07-31T11:57:52;1.00;;;0.90;;
13419;SDS011;6781;58.440;15.470;2023-07-31T12:00:22;2.17;;;1.20;;
13419;SDS011;6781;58.440;15.470;2023-07-31T12:02:50;1.13;;;0.80;;
13419;SDS011;6781;58.440;15.470;2023-07-31T12:05:18;1.25;;;1.08;;
13419;SDS011;6781;58.440;15.470;2023-07-31T12:07:46;1.23;;;0.75;;
13419;SDS011;6781;58.440;15.470;2023-07-31T12:10:25;0.95;;;0.85;;
13419;SDS011;6781;58.440;15.470;2023-07-31T12:13:00;1.10;;;0.80;;
13419;SDS011;6781;58.440;15.470;2023-07-31T12:15:30;1.60;;;0.82;;
13419;SDS011;6781;58.440;15.470;2023-07-31T12:17:58;1.67;;;0.98;;
13419;SDS011;6781;58.440;15.470;2023-07-31T12:20:26;2.10;;;1.20;;
13419;SDS011;6781;58.440;15.470;2023-07-31T12:22:55;1.20;;;0.80;;
13419;SDS011;6781;58.440;15.470;2023-07-31T12:25:29;1.63;;;1.20;;
13419;SDS011;6781;58.440;15.470;2023-07-31T12:27:57;2.33;;;0.90;;
13419;SDS011;6781;58.440;15.470;2023-07-31T12:30:27;0.98;;;0.98;;
13419;SDS011;6781;58.440;15.470;2023-07-31T12:32:55;1.42;;;0.90;;
13419;SDS011;6781;58.440;15.470;2023-07-31T12:35:22;1.83;;;1.10;;
13419;SDS011;6781;58.440;15.470;2023-07-31T12:37:48;1.48;;;0.90;;
13419;SDS011;6781;58.440;15.470;2023-07-31T12:40:16;1.63;;;1.10;;
13419;SDS011;6781;58.440;15.470;2023-07-31T12:42:44;2.60;;;0.82;;
13419;SDS011;6781;58.440;15.470;2023-07-31T12:45:11;0.80;;;0.80;;
13419;SDS011;6781;58.440;15.470;2023-07-31T12:47:38;3.35;;;0.82;;
13419;SDS011;6781;58.440;15.470;2023-07-31T12:50:06;1.30;;;0.90;;
13419;SDS011;6781;58.440;15.470;2023-07-31T12:52:33;1.15;;;0.90;;
13419;SDS011;6781;58.440;15.470;2023-07-31T12:55:00;2.15;;;0.93;;
13419;SDS011;6781;58.440;15.470;2023-07-31T12:57:28;1.83;;;0.93;;
13419;SDS011;6781;58.440;15.470;2023-07-31T12:59:56;1.98;;;0.98;;
13419;SDS011;6781;58.440;15.470;2023-07-31T13:02:23;0.77;;;0.70;;
13419;SDS011;6781;58.440;15.470;2023-07-31T13:04:50;1.67;;;1.00;;
13419;SDS011;6781;58.440;15.470;2023-07-31T13:07:18;3.08;;;0.80;;
13419;SDS011;6781;58.440;15.470;2023-07-31T13:09:45;1.05;;;0.77;;
13419;SDS011;6781;58.440;15.470;2023-07-31T13:12:12;2.22;;;0.85;;
13419;SDS011;6781;58.440;15.470;2023-07-31T13:14:39;0.82;;;0.80;;
13419;SDS011;6781;58.440;15.470;2023-07-31T13:17:07;2.20;;;1.00;;
13419;SDS011;6781;58.440;15.470;2023-07-31T13:19:34;2.17;;;1.20;;
13419;SDS011;6781;58.440;15.470;2023-07-31T13:22:01;1.88;;;1.60;;
13419;SDS011;6781;58.440;15.470;2023-07-31T13:24:29;4.65;;;1.73;;
13419;SDS011;6781;58.440;15.470;2023-07-31T13:26:56;3.10;;;1.77;;
13419;SDS011;6781;58.440;15.470;2023-07-31T13:29:23;1.42;;;1.10;;
13419;SDS011;6781;58.440;15.470;2023-07-31T13:31:51;1.98;;;0.88;;
13419;SDS011;6781;58.440;15.470;2023-07-31T13:34:20;1.30;;;1.20;;
13419;SDS011;6781;58.440;15.470;2023-07-31T13:36:47;0.98;;;0.80;;
13419;SDS011;6781;58.440;15.470;2023-07-31T13:39:14;1.52;;;1.08;;
13419;SDS011;6781;58.440;15.470;2023-07-31T13:41:41;1.27;;;0.90;;
13419;SDS011;6781;58.440;15.470;2023-07-31T13:44:08;1.30;;;0.88;;
13419;SDS011;6781;58.440;15.470;2023-07-31T13:46:35;2.83;;;0.80;;
13419;SDS011;6781;58.440;15.470;2023-07-31T13:49:02;2.42;;;1.33;;
13419;SDS011;6781;58.440;15.470;2023-07-31T13:51:31;2.50;;;1.10;;
13419;SDS011;6781;58.440;15.470;2023-07-31T13:53:58;4.18;;;0.93;;
13419;SDS011;6781;58.440;15.470;2023-07-31T13:56:25;1.70;;;0.82;;
13419;SDS011;6781;58.440;15.470;2023-07-31T13:58:52;2.10;;;1.02;;
13419;SDS011;6781;58.440;15.470;2023-07-31T14:01:19;0.90;;;0.80;;
13419;SDS011;6781;58.440;15.470;2023-07-31T14:03:46;1.50;;;0.60;;
13419;SDS011;6781;58.440;15.470;2023-07-31T14:06:13;1.63;;;0.98;;
13419;SDS011;6781;58.440;15.470;2023-07-31T14:08:41;1.52;;;0.70;;
13419;SDS011;6781;58.440;15.470;2023-07-31T14:11:08;0.75;;;0.40;;
13419;SDS011;6781;58.440;15.470;2023-07-31T14:13:35;0.57;;;0.40;;
13419;SDS011;6781;58.440;15.470;2023-07-31T14:16:02;0.95;;;0.65;;
13419;SDS011;6781;58.440;15.470;2023-07-31T14:18:29;0.50;;;0.50;;
13419;SDS011;6781;58.440;15.470;2023-07-31T14:20:56;0.75;;;0.55;;
13419;SDS011;6781;58.440;15.470;2023-07-31T14:23:23;4.70;;;0.90;;
13419;SDS011;6781;58.440;15.470;2023-07-31T14:25:52;1.08;;;0.60;;
13419;SDS011;6781;58.440;15.470;2023-07-31T14:28:19;0.60;;;0.40;;
13419;SDS011;6781;58.440;15.470;2023-07-31T14:30:46;0.30;;;0.30;;
13419;SDS011;6781;58.440;15.470;2023-07-31T14:33:13;0.40;;;0.38;;
13419;SDS011;6781;58.440;15.470;2023-07-31T14:35:40;0.40;;;0.40;;
13419;SDS011;6781;58.440;15.470;2023-07-31T14:38:07;1.38;;;0.40;;
13419;SDS011;6781;58.440;15.470;2023-07-31T14:40:34;0.25;;;0.25;;
13419;SDS011;6781;58.440;15.470;2023-07-31T14:43:03;0.50;;;0.50;;
13419;SDS011;6781;58.440;15.470;2023-07-31T14:45:30;1.42;;;0.47;;
13419;SDS011;6781;58.440;15.470;2023-07-31T14:47:57;0.50;;;0.50;;
13419;SDS011;6781;58.440;15.470;2023-07-31T14:50:24;0.40;;;0.40;;
13419;SDS011;6781;58.440;15.470;2023-07-31T14:52:52;0.40;;;0.40;;
13419;SDS011;6781;58.440;15.470;2023-07-31T14:55:21;0.63;;;0.50;;
13419;SDS011;6781;58.440;15.470;2023-07-31T14:57:48;1.60;;;0.50;;
13419;SDS011;6781;58.440;15.470;2023-07-31T15:00:17;1.60;;;0.50;;
13419;SDS011;6781;58.440;15.470;2023-07-31T15:03:06;0.52;;;0.52;;
13419;SDS011;6781;58.440;15.470;2023-07-31T15:05:33;1.98;;;0.52;;
13419;SDS011;6781;58.440;15.470;2023-07-31T15:08:00;1.05;;;0.80;;
13419;SDS011;6781;58.440;15.470;2023-07-31T15:10:27;1.00;;;0.50;;
13419;SDS011;6781;58.440;15.470;2023-07-31T15:12:56;1.10;;;0.70;;
13419;SDS011;6781;58.440;15.470;2023-07-31T15:15:27;0.40;;;0.40;;
13419;SDS011;6781;58.440;15.470;2023-07-31T15:17:55;1.35;;;0.70;;
13419;SDS011;6781;58.440;15.470;2023-07-31T15:20:22;0.77;;;0.60;;
13419;SDS011;6781;58.440;15.470;2023-07-31T15:22:50;0.45;;;0.45;;
13419;SDS011;6781;58.440;15.470;2023-07-31T15:25:17;1.35;;;0.52;;